sensor_id;sensor_type;location;lat;lon;timestamp;P1;durP1;ratioP1;P2;durP2;ratioP2
60038;SDS011;45916;52.734;6.544;2024-03-06T00:01:44;23.55;;;19.38;;
60038;SDS011;45916;52.734;6.544;2024-03-06T00:04:10;25.75;;;19.25;;
60038;SDS011;45916;52.734;6.544;2024-03-06T00:06:36;21.45;;;18.42;;
60038;SDS011;45916;52.734;6.544;2024-03-06T00:09:02;21.73;;;17.35;;
60038;SDS011;45916;52.734;6.544;2024-03-06T00:11:28;23.33;;;16.95;;
60038;SDS011;45916;52.734;6.544;2024-03-06T00:13:54;21.85;;;17.15;;
60038;SDS011;45916;52.734;6.544;2024-03-06T00:16:20;20.75;;;16.70;;
60038;SDS011;45916;52.734;6.544;2024-03-06T00:18:46;19.80;;;15.85;;
60038;SDS011;45916;52.734;6.544;2024-03-06T00:21:12;22.52;;;16.00;;
60038;SDS011;45916;52.734;6.544;2024-03-06T00:23:39;19.98;;;16.38;;
60038;SDS011;45916;52.734;6.544;2024-03-06T00:26:06;20.23;;;15.48;;
60038;SDS011;45916;52.734;6.544;2024-03-06T00:28:32;22.55;;;15.65;;
60038;SDS011;45916;52.734;6.544;2024-03-06T00:30:58;23.05;;;16.00;;
60038;SDS011;45916;52.734;6.544;2024-03-06T00:33:24;20.92;;;16.88;;
60038;SDS011;45916;52.734;6.544;2024-03-06T00:35:50;20.00;;;15.25;;
60038;SDS011;45916;52.734;6.544;2024-03-06T00:38:16;21.02;;;15.77;;
60038;SDS011;45916;52.734;6.544;2024-03-06T00:40:43;20.83;;;14.73;;
60038;SDS011;45916;52.734;6.544;2024-03-06T00:43:09;17.48;;;15.13;;
60038;SDS011;45916;52.734;6.544;2024-03-06T00:45:35;19.15;;;15.27;;
60038;SDS011;45916;52.734;6.544;2024-03-06T00:48:01;19.73;;;15.52;;
60038;SDS011;45916;52.734;6.544;2024-03-06T00:50:28;23.40;;;16.23;;
60038;SDS011;45916;52.734;6.544;2024-03-06T00:52:54;20.67;;;16.17;;
60038;SDS011;45916;52.734;6.544;2024-03-06T00:55:20;18.67;;;15.10;;
60038;SDS011;45916;52.734;6.544;2024-03-06T00:57:46;21.83;;;16.17;;
60038;SDS011;45916;52.734;6.544;2024-03-06T01:00:12;20.33;;;15.27;;
60038;SDS011;45916;52.734;6.544;2024-03-06T01:02:40;20.92;;;15.57;;
60038;SDS011;45916;52.734;6.544;2024-03-06T01:05:06;22.67;;;15.50;;
60038;SDS011;45916;52.734;6.544;2024-03-06T01:07:33;19.83;;;15.18;;
60038;SDS011;45916;52.734;6.544;2024-03-06T01:09:59;20.27;;;16.45;;
60038;SDS011;45916;52.734;6.544;2024-03-06T01:12:26;19.65;;;15.63;;
60038;SDS011;45916;52.734;6.544;2024-03-06T01:14:52;19.95;;;15.18;;
60038;SDS011;45916;52.734;6.544;2024-03-06T01:17:18;22.85;;;14.82;;
60038;SDS011;45916;52.734;6.544;2024-03-06T01:19:44;18.70;;;14.70;;
60038;SDS011;45916;52.734;6.544;2024-03-06T01:22:10;21.67;;;14.65;;
60038;SDS011;45916;52.734;6.544;2024-03-06T01:24:38;19.90;;;15.38;;
60038;SDS011;45916;52.734;6.544;2024-03-06T01:27:04;21.67;;;15.02;;
60038;SDS011;45916;52.734;6.544;2024-03-06T01:29:31;21.02;;;14.90;;
60038;SDS011;45916;52.734;6.544;2024-03-06T01:31:57;20.25;;;14.05;;
60038;SDS011;45916;52.734;6.544;2024-03-06T01:34:23;22.85;;;14.73;;
60038;SDS011;45916;52.734;6.544;2024-03-06T01:36:50;21.30;;;15.38;;
60038;SDS011;45916;52.734;6.544;2024-03-06T01:39:16;22.20;;;14.88;;
60038;SDS011;45916;52.734;6.544;2024-03-06T01:41:49;19.00;;;14.20;;
60038;SDS011;45916;52.734;6.544;2024-03-06T01:44:16;23.05;;;14.40;;
60038;SDS011;45916;52.734;6.544;2024-03-06T01:46:42;19.20;;;13.75;;
60038;SDS011;45916;52.734;6.544;2024-03-06T01:49:09;20.48;;;14.70;;
60038;SDS011;45916;52.734;6.544;2024-03-06T01:51:36;18.50;;;14.75;;
60038;SDS011;45916;52.734;6.544;2024-03-06T01:54:02;22.08;;;15.05;;
60038;SDS011;45916;52.734;6.544;2024-03-06T01:56:29;19.95;;;14.65;;
60038;SDS011;45916;52.734;6.544;2024-03-06T01:58:56;21.38;;;15.95;;
60038;SDS011;45916;52.734;6.544;2024-03-06T02:01:22;21.95;;;14.00;;
60038;SDS011;45916;52.734;6.544;2024-03-06T02:03:49;21.85;;;15.20;;
60038;SDS011;45916;52.734;6.544;2024-03-06T02:06:15;18.35;;;13.55;;
60038;SDS011;45916;52.734;6.544;2024-03-06T02:08:45;18.27;;;13.02;;
60038;SDS011;45916;52.734;6.544;2024-03-06T02:11:11;20.67;;;14.82;;
60038;SDS011;45916;52.734;6.544;2024-03-06T02:13:41;18.30;;;14.18;;
60038;SDS011;45916;52.734;6.544;2024-03-06T02:16:07;18.73;;;13.68;;
60038;SDS011;45916;52.734;6.544;2024-03-06T02:18:33;21.42;;;14.80;;
60038;SDS011;45916;52.734;6.544;2024-03-06T02:20:59;19.20;;;14.32;;
60038;SDS011;45916;52.734;6.544;2024-03-06T02:23:26;21.98;;;15.23;;
60038;SDS011;45916;52.734;6.544;2024-03-06T02:25:52;18.05;;;13.60;;
60038;SDS011;45916;52.734;6.544;2024-03-06T02:28:18;20.05;;;14.52;;
60038;SDS011;45916;52.734;6.544;2024-03-06T02:30:44;22.10;;;16.23;;
60038;SDS011;45916;52.734;6.544;2024-03-06T02:33:10;21.33;;;14.63;;
60038;SDS011;45916;52.734;6.544;2024-03-06T02:35:36;20.15;;;14.93;;
60038;SDS011;45916;52.734;6.544;2024-03-06T02:38:04;17.90;;;14.80;;
60038;SDS011;45916;52.734;6.544;2024-03-06T02:40:31;23.13;;;14.93;;
60038;SDS011;45916;52.734;6.544;2024-03-06T02:42:57;18.45;;;14.45;;
60038;SDS011;45916;52.734;6.544;2024-03-06T02:45:23;19.73;;;14.88;;
60038;SDS011;45916;52.734;6.544;2024-03-06T02:47:49;20.30;;;13.93;;
60038;SDS011;45916;52.734;6.544;2024-03-06T02:50:16;18.95;;;13.98;;
60038;SDS011;45916;52.734;6.544;2024-03-06T02:52:42;20.58;;;13.60;;
60038;SDS011;45916;52.734;6.544;2024-03-06T02:55:08;16.25;;;13.20;;
60038;SDS011;45916;52.734;6.544;2024-03-06T02:57:34;25.13;;;14.40;;
60038;SDS011;45916;52.734;6.544;2024-03-06T03:00:00;21.35;;;14.65;;
60038;SDS011;45916;52.734;6.544;2024-03-06T03:02:27;19.45;;;14.32;;
60038;SDS011;45916;52.734;6.544;2024-03-06T03:04:53;18.35;;;14.10;;
60038;SDS011;45916;52.734;6.544;2024-03-06T03:07:19;19.77;;;15.40;;
60038;SDS011;45916;52.734;6.544;2024-03-06T03:09:46;20.95;;;14.63;;
60038;SDS011;45916;52.734;6.544;2024-03-06T03:12:12;20.52;;;15.73;;
60038;SDS011;45916;52.734;6.544;2024-03-06T03:14:41;19.92;;;14.63;;
60038;SDS011;45916;52.734;6.544;2024-03-06T03:17:08;24.25;;;15.10;;
60038;SDS011;45916;52.734;6.544;2024-03-06T03:19:34;19.63;;;14.50;;
60038;SDS011;45916;52.734;6.544;2024-03-06T03:22:00;20.23;;;15.95;;
60038;SDS011;45916;52.734;6.544;2024-03-06T03:24:29;20.17;;;14.60;;
60038;SDS011;45916;52.734;6.544;2024-03-06T03:26:55;20.88;;;14.85;;
60038;SDS011;45916;52.734;6.544;2024-03-06T03:29:21;22.10;;;14.40;;
60038;SDS011;45916;52.734;6.544;2024-03-06T03:31:48;19.17;;;15.48;;
60038;SDS011;45916;52.734;6.544;2024-03-06T03:34:14;19.20;;;15.23;;
60038;SDS011;45916;52.734;6.544;2024-03-06T03:36:43;20.25;;;15.90;;
60038;SDS011;45916;52.734;6.544;2024-03-06T03:39:10;21.40;;;15.50;;
60038;SDS011;45916;52.734;6.544;2024-03-06T03:41:43;18.23;;;14.10;;
60038;SDS011;45916;52.734;6.544;2024-03-06T03:44:11;22.70;;;14.68;;
60038;SDS011;45916;52.734;6.544;2024-03-06T03:46:37;20.80;;;14.63;;
60038;SDS011;45916;52.734;6.544;2024-03-06T03:49:03;19.48;;;15.05;;
60038;SDS011;45916;52.734;6.544;2024-03-06T03:51:30;20.90;;;15.55;;
60038;SDS011;45916;52.734;6.544;2024-03-06T03:53:56;22.23;;;15.18;;
60038;SDS011;45916;52.734;6.544;2024-03-06T03:56:22;22.23;;;14.38;;
60038;SDS011;45916;52.734;6.544;2024-03-06T03:58:48;19.95;;;15.75;;
60038;SDS011;45916;52.734;6.544;2024-03-06T04:01:14;19.92;;;15.18;;
60038;SDS011;45916;52.734;6.544;2024-03-06T04:03:40;18.58;;;15.20;;
60038;SDS011;45916;52.734;6.544;2024-03-06T04:06:07;23.25;;;15.13;;
60038;SDS011;45916;52.734;6.544;2024-03-06T04:08:34;20.35;;;15.82;;
60038;SDS011;45916;52.734;6.544;2024-03-06T04:11:00;20.65;;;15.50;;
60038;SDS011;45916;52.734;6.544;2024-03-06T04:13:26;17.25;;;15.40;;
60038;SDS011;45916;52.734;6.544;2024-03-06T04:15:52;19.45;;;15.25;;
60038;SDS011;45916;52.734;6.544;2024-03-06T04:18:18;22.33;;;16.23;;
60038;SDS011;45916;52.734;6.544;2024-03-06T04:20:44;19.85;;;15.77;;
60038;SDS011;45916;52.734;6.544;2024-03-06T04:23:10;23.10;;;15.65;;
60038;SDS011;45916;52.734;6.544;2024-03-06T04:25:36;20.17;;;15.05;;
60038;SDS011;45916;52.734;6.544;2024-03-06T04:28:04;19.48;;;15.40;;
60038;SDS011;45916;52.734;6.544;2024-03-06T04:32:58;21.95;;;16.48;;
60038;SDS011;45916;52.734;6.544;2024-03-06T04:35:24;19.70;;;16.13;;
60038;SDS011;45916;52.734;6.544;2024-03-06T04:37:50;21.08;;;15.88;;
60038;SDS011;45916;52.734;6.544;2024-03-06T04:40:17;23.70;;;16.63;;
60038;SDS011;45916;52.734;6.544;2024-03-06T04:42:45;19.27;;;15.95;;
60038;SDS011;45916;52.734;6.544;2024-03-06T04:45:15;21.55;;;15.85;;
60038;SDS011;45916;52.734;6.544;2024-03-06T04:47:42;21.55;;;16.50;;
60038;SDS011;45916;52.734;6.544;2024-03-06T04:50:11;19.55;;;16.15;;
60038;SDS011;45916;52.734;6.544;2024-03-06T04:52:40;22.10;;;17.83;;
60038;SDS011;45916;52.734;6.544;2024-03-06T04:55:07;22.38;;;16.85;;
60038;SDS011;45916;52.734;6.544;2024-03-06T04:57:36;23.55;;;16.83;;
60038;SDS011;45916;52.734;6.544;2024-03-06T05:00:02;24.58;;;16.98;;
60038;SDS011;45916;52.734;6.544;2024-03-06T05:02:31;25.13;;;17.77;;
60038;SDS011;45916;52.734;6.544;2024-03-06T05:07:26;22.40;;;16.75;;
60038;SDS011;45916;52.734;6.544;2024-03-06T05:09:52;23.85;;;17.95;;
60038;SDS011;45916;52.734;6.544;2024-03-06T05:12:18;21.10;;;17.23;;
60038;SDS011;45916;52.734;6.544;2024-03-06T05:14:44;23.73;;;18.10;;
60038;SDS011;45916;52.734;6.544;2024-03-06T05:17:10;25.13;;;18.90;;
60038;SDS011;45916;52.734;6.544;2024-03-06T05:19:36;26.30;;;18.45;;
60038;SDS011;45916;52.734;6.544;2024-03-06T05:22:02;27.30;;;18.80;;
60038;SDS011;45916;52.734;6.544;2024-03-06T05:24:29;23.92;;;18.95;;
60038;SDS011;45916;52.734;6.544;2024-03-06T05:26:55;25.48;;;18.65;;
60038;SDS011;45916;52.734;6.544;2024-03-06T05:29:21;26.05;;;19.85;;
60038;SDS011;45916;52.734;6.544;2024-03-06T05:31:47;31.40;;;19.45;;
60038;SDS011;45916;52.734;6.544;2024-03-06T05:34:13;30.27;;;20.77;;
60038;SDS011;45916;52.734;6.544;2024-03-06T05:36:39;26.00;;;19.40;;
60038;SDS011;45916;52.734;6.544;2024-03-06T05:39:06;30.75;;;21.17;;
60038;SDS011;45916;52.734;6.544;2024-03-06T05:41:32;28.95;;;21.13;;
60038;SDS011;45916;52.734;6.544;2024-03-06T05:43:58;32.45;;;22.42;;
60038;SDS011;45916;52.734;6.544;2024-03-06T05:46:24;29.65;;;21.40;;
60038;SDS011;45916;52.734;6.544;2024-03-06T05:48:51;33.25;;;21.45;;
60038;SDS011;45916;52.734;6.544;2024-03-06T05:51:17;32.83;;;21.67;;
60038;SDS011;45916;52.734;6.544;2024-03-06T05:53:43;29.98;;;23.33;;
60038;SDS011;45916;52.734;6.544;2024-03-06T05:56:10;28.85;;;20.90;;
60038;SDS011;45916;52.734;6.544;2024-03-06T05:58:36;30.48;;;20.38;;
60038;SDS011;45916;52.734;6.544;2024-03-06T06:01:02;32.40;;;22.70;;
60038;SDS011;45916;52.734;6.544;2024-03-06T06:03:29;31.17;;;22.85;;
60038;SDS011;45916;52.734;6.544;2024-03-06T06:05:55;34.10;;;22.13;;
60038;SDS011;45916;52.734;6.544;2024-03-06T06:08:21;31.63;;;22.17;;
60038;SDS011;45916;52.734;6.544;2024-03-06T06:10:47;34.40;;;23.27;;
60038;SDS011;45916;52.734;6.544;2024-03-06T06:13:16;32.90;;;23.45;;
60038;SDS011;45916;52.734;6.544;2024-03-06T06:15:42;30.42;;;22.52;;
60038;SDS011;45916;52.734;6.544;2024-03-06T06:18:08;33.25;;;22.77;;
60038;SDS011;45916;52.734;6.544;2024-03-06T06:20:35;30.27;;;22.15;;
60038;SDS011;45916;52.734;6.544;2024-03-06T06:23:01;30.42;;;24.08;;
60038;SDS011;45916;52.734;6.544;2024-03-06T06:25:27;31.88;;;22.42;;
60038;SDS011;45916;52.734;6.544;2024-03-06T06:27:53;31.60;;;22.27;;
60038;SDS011;45916;52.734;6.544;2024-03-06T06:30:19;32.00;;;23.17;;
60038;SDS011;45916;52.734;6.544;2024-03-06T06:32:45;31.88;;;23.80;;
60038;SDS011;45916;52.734;6.544;2024-03-06T06:35:11;34.58;;;21.67;;
60038;SDS011;45916;52.734;6.544;2024-03-06T06:37:40;34.08;;;23.23;;
60038;SDS011;45916;52.734;6.544;2024-03-06T06:40:07;33.20;;;23.45;;
60038;SDS011;45916;52.734;6.544;2024-03-06T06:42:33;33.03;;;24.20;;
60038;SDS011;45916;52.734;6.544;2024-03-06T06:45:00;37.72;;;23.52;;
60038;SDS011;45916;52.734;6.544;2024-03-06T06:47:26;33.20;;;23.90;;
60038;SDS011;45916;52.734;6.544;2024-03-06T06:49:52;31.83;;;23.73;;
60038;SDS011;45916;52.734;6.544;2024-03-06T06:52:18;32.17;;;24.02;;
60038;SDS011;45916;52.734;6.544;2024-03-06T06:54:44;34.50;;;24.95;;
60038;SDS011;45916;52.734;6.544;2024-03-06T06:57:10;35.88;;;24.30;;
60038;SDS011;45916;52.734;6.544;2024-03-06T06:59:36;36.60;;;25.08;;
60038;SDS011;45916;52.734;6.544;2024-03-06T07:02:02;33.95;;;23.00;;
60038;SDS011;45916;52.734;6.544;2024-03-06T07:04:29;32.25;;;24.88;;
60038;SDS011;45916;52.734;6.544;2024-03-06T07:06:55;32.17;;;24.40;;
60038;SDS011;45916;52.734;6.544;2024-03-06T07:09:21;33.30;;;24.75;;
60038;SDS011;45916;52.734;6.544;2024-03-06T07:11:47;35.42;;;24.33;;
60038;SDS011;45916;52.734;6.544;2024-03-06T07:14:14;33.40;;;23.67;;
60038;SDS011;45916;52.734;6.544;2024-03-06T07:16:44;36.90;;;23.65;;
60038;SDS011;45916;52.734;6.544;2024-03-06T07:19:11;33.92;;;25.00;;
60038;SDS011;45916;52.734;6.544;2024-03-06T07:21:37;30.55;;;23.50;;
60038;SDS011;45916;52.734;6.544;2024-03-06T07:24:03;36.22;;;23.85;;
60038;SDS011;45916;52.734;6.544;2024-03-06T07:26:31;33.08;;;25.65;;
60038;SDS011;45916;52.734;6.544;2024-03-06T07:28:58;31.48;;;24.17;;
60038;SDS011;45916;52.734;6.544;2024-03-06T07:31:24;36.08;;;25.65;;
60038;SDS011;45916;52.734;6.544;2024-03-06T07:33:50;37.78;;;25.63;;
60038;SDS011;45916;52.734;6.544;2024-03-06T07:36:16;32.88;;;25.08;;
60038;SDS011;45916;52.734;6.544;2024-03-06T07:38:43;32.95;;;23.75;;
60038;SDS011;45916;52.734;6.544;2024-03-06T07:41:09;36.28;;;24.38;;
60038;SDS011;45916;52.734;6.544;2024-03-06T07:43:35;28.60;;;22.13;;
60038;SDS011;45916;52.734;6.544;2024-03-06T07:46:03;33.28;;;25.42;;
60038;SDS011;45916;52.734;6.544;2024-03-06T07:48:33;35.38;;;24.23;;
60038;SDS011;45916;52.734;6.544;2024-03-06T07:50:59;32.42;;;23.33;;
60038;SDS011;45916;52.734;6.544;2024-03-06T07:53:25;35.83;;;24.33;;
60038;SDS011;45916;52.734;6.544;2024-03-06T07:55:52;34.65;;;24.38;;
60038;SDS011;45916;52.734;6.544;2024-03-06T07:58:18;38.30;;;26.00;;
60038;SDS011;45916;52.734;6.544;2024-03-06T08:00:46;34.97;;;25.60;;
60038;SDS011;45916;52.734;6.544;2024-03-06T08:03:12;28.20;;;21.40;;
60038;SDS011;45916;52.734;6.544;2024-03-06T08:05:38;28.02;;;22.40;;
60038;SDS011;45916;52.734;6.544;2024-03-06T08:08:05;27.50;;;22.02;;
60038;SDS011;45916;52.734;6.544;2024-03-06T08:10:31;30.85;;;21.95;;
60038;SDS011;45916;52.734;6.544;2024-03-06T08:12:58;29.58;;;21.55;;
60038;SDS011;45916;52.734;6.544;2024-03-06T08:15:25;32.25;;;22.25;;
60038;SDS011;45916;52.734;6.544;2024-03-06T08:17:51;28.05;;;21.35;;
60038;SDS011;45916;52.734;6.544;2024-03-06T08:20:17;28.58;;;21.73;;
60038;SDS011;45916;52.734;6.544;2024-03-06T08:22:43;27.90;;;21.35;;
60038;SDS011;45916;52.734;6.544;2024-03-06T08:25:10;29.88;;;21.23;;
60038;SDS011;45916;52.734;6.544;2024-03-06T08:27:37;32.45;;;22.55;;
60038;SDS011;45916;52.734;6.544;2024-03-06T08:30:04;33.08;;;22.77;;
60038;SDS011;45916;52.734;6.544;2024-03-06T08:32:34;31.23;;;21.73;;
60038;SDS011;45916;52.734;6.544;2024-03-06T08:35:05;27.65;;;21.52;;
60038;SDS011;45916;52.734;6.544;2024-03-06T08:37:32;30.75;;;22.42;;
60038;SDS011;45916;52.734;6.544;2024-03-06T08:39:59;27.77;;;21.95;;
60038;SDS011;45916;52.734;6.544;2024-03-06T08:42:26;32.17;;;22.95;;
60038;SDS011;45916;52.734;6.544;2024-03-06T08:44:52;30.40;;;22.60;;
60038;SDS011;45916;52.734;6.544;2024-03-06T08:47:18;32.72;;;24.75;;
60038;SDS011;45916;52.734;6.544;2024-03-06T08:49:44;33.67;;;24.67;;
60038;SDS011;45916;52.734;6.544;2024-03-06T08:52:11;33.78;;;24.10;;
60038;SDS011;45916;52.734;6.544;2024-03-06T08:54:37;35.45;;;26.10;;
60038;SDS011;45916;52.734;6.544;2024-03-06T08:57:03;37.42;;;27.80;;
60038;SDS011;45916;52.734;6.544;2024-03-06T08:59:29;35.53;;;25.17;;
60038;SDS011;45916;52.734;6.544;2024-03-06T09:01:55;36.22;;;27.60;;
60038;SDS011;45916;52.734;6.544;2024-03-06T09:04:22;35.53;;;26.70;;
60038;SDS011;45916;52.734;6.544;2024-03-06T09:06:48;36.80;;;28.25;;
60038;SDS011;45916;52.734;6.544;2024-03-06T09:09:15;36.20;;;28.80;;
60038;SDS011;45916;52.734;6.544;2024-03-06T09:11:41;38.90;;;27.85;;
60038;SDS011;45916;52.734;6.544;2024-03-06T09:14:07;36.60;;;27.80;;
60038;SDS011;45916;52.734;6.544;2024-03-06T09:16:36;43.30;;;30.05;;
60038;SDS011;45916;52.734;6.544;2024-03-06T09:19:02;38.00;;;29.25;;
60038;SDS011;45916;52.734;6.544;2024-03-06T09:21:28;36.80;;;29.25;;
60038;SDS011;45916;52.734;6.544;2024-03-06T09:23:54;35.83;;;29.35;;
60038;SDS011;45916;52.734;6.544;2024-03-06T09:26:21;42.03;;;28.30;;
60038;SDS011;45916;52.734;6.544;2024-03-06T09:28:47;40.90;;;29.77;;
60038;SDS011;45916;52.734;6.544;2024-03-06T09:31:14;39.17;;;29.65;;
60038;SDS011;45916;52.734;6.544;2024-03-06T09:33:40;38.30;;;29.10;;
60038;SDS011;45916;52.734;6.544;2024-03-06T09:36:06;39.20;;;29.00;;
60038;SDS011;45916;52.734;6.544;2024-03-06T09:38:32;40.25;;;28.65;;
60038;SDS011;45916;52.734;6.544;2024-03-06T09:40:59;38.67;;;29.20;;
60038;SDS011;45916;52.734;6.544;2024-03-06T09:43:25;40.67;;;28.02;;
60038;SDS011;45916;52.734;6.544;2024-03-06T09:45:51;40.47;;;30.42;;
60038;SDS011;45916;52.734;6.544;2024-03-06T09:48:20;39.85;;;29.92;;
60038;SDS011;45916;52.734;6.544;2024-03-06T09:50:46;40.78;;;30.33;;
60038;SDS011;45916;52.734;6.544;2024-03-06T09:53:15;39.83;;;30.38;;
60038;SDS011;45916;52.734;6.544;2024-03-06T09:55:42;40.70;;;30.75;;
60038;SDS011;45916;52.734;6.544;2024-03-06T09:58:08;41.88;;;29.98;;
60038;SDS011;45916;52.734;6.544;2024-03-06T10:00:35;42.65;;;30.77;;
60038;SDS011;45916;52.734;6.544;2024-03-06T10:03:01;42.10;;;30.13;;
60038;SDS011;45916;52.734;6.544;2024-03-06T10:05:30;44.13;;;31.60;;
60038;SDS011;45916;52.734;6.544;2024-03-06T10:07:58;38.35;;;30.70;;
60038;SDS011;45916;52.734;6.544;2024-03-06T10:10:25;40.70;;;30.00;;
60038;SDS011;45916;52.734;6.544;2024-03-06T10:12:52;44.53;;;30.58;;
60038;SDS011;45916;52.734;6.544;2024-03-06T10:15:18;42.40;;;29.92;;
60038;SDS011;45916;52.734;6.544;2024-03-06T10:17:44;41.92;;;31.10;;
60038;SDS011;45916;52.734;6.544;2024-03-06T10:22:49;45.83;;;31.60;;
60038;SDS011;45916;52.734;6.544;2024-03-06T10:25:22;42.97;;;31.65;;
60038;SDS011;45916;52.734;6.544;2024-03-06T10:28:08;39.35;;;31.10;;
60038;SDS011;45916;52.734;6.544;2024-03-06T10:30:34;38.85;;;31.45;;
60038;SDS011;45916;52.734;6.544;2024-03-06T10:33:04;43.40;;;31.83;;
60038;SDS011;45916;52.734;6.544;2024-03-06T10:35:33;42.80;;;31.05;;
60038;SDS011;45916;52.734;6.544;2024-03-06T10:38:01;42.28;;;32.75;;
60038;SDS011;45916;52.734;6.544;2024-03-06T10:40:48;42.92;;;31.00;;
60038;SDS011;45916;52.734;6.544;2024-03-06T10:43:17;40.95;;;30.45;;
60038;SDS011;45916;52.734;6.544;2024-03-06T10:48:09;41.28;;;32.85;;
60038;SDS011;45916;52.734;6.544;2024-03-06T10:50:40;39.22;;;29.40;;
60038;SDS011;45916;52.734;6.544;2024-03-06T10:53:11;41.80;;;30.77;;
60038;SDS011;45916;52.734;6.544;2024-03-06T10:55:38;43.30;;;31.48;;
60038;SDS011;45916;52.734;6.544;2024-03-06T10:58:08;38.60;;;30.38;;
60038;SDS011;45916;52.734;6.544;2024-03-06T11:00:34;43.53;;;31.00;;
60038;SDS011;45916;52.734;6.544;2024-03-06T11:05:33;39.08;;;29.85;;
60038;SDS011;45916;52.734;6.544;2024-03-06T11:07:59;42.25;;;31.45;;
60038;SDS011;45916;52.734;6.544;2024-03-06T11:10:32;40.38;;;30.85;;
60038;SDS011;45916;52.734;6.544;2024-03-06T11:12:59;41.15;;;29.92;;
60038;SDS011;45916;52.734;6.544;2024-03-06T11:15:26;38.60;;;30.00;;
60038;SDS011;45916;52.734;6.544;2024-03-06T11:17:52;38.95;;;30.08;;
60038;SDS011;45916;52.734;6.544;2024-03-06T11:20:22;38.35;;;30.77;;
60038;SDS011;45916;52.734;6.544;2024-03-06T11:28:24;41.13;;;30.65;;
60038;SDS011;45916;52.734;6.544;2024-03-06T11:30:56;41.83;;;31.63;;
60038;SDS011;45916;52.734;6.544;2024-03-06T11:33:36;40.00;;;31.45;;
60038;SDS011;45916;52.734;6.544;2024-03-06T11:38:47;39.55;;;30.63;;
60038;SDS011;45916;52.734;6.544;2024-03-06T11:41:13;39.00;;;31.38;;
60038;SDS011;45916;52.734;6.544;2024-03-06T11:43:43;40.25;;;30.77;;
60038;SDS011;45916;52.734;6.544;2024-03-06T11:46:09;37.63;;;30.98;;
60038;SDS011;45916;52.734;6.544;2024-03-06T11:48:36;38.30;;;31.00;;
60038;SDS011;45916;52.734;6.544;2024-03-06T11:51:02;35.05;;;28.98;;
60038;SDS011;45916;52.734;6.544;2024-03-06T11:53:29;40.88;;;28.45;;
60038;SDS011;45916;52.734;6.544;2024-03-06T11:55:56;39.90;;;29.58;;
60038;SDS011;45916;52.734;6.544;2024-03-06T11:58:22;36.08;;;28.75;;
60038;SDS011;45916;52.734;6.544;2024-03-06T12:00:49;34.95;;;28.23;;
60038;SDS011;45916;52.734;6.544;2024-03-06T12:03:15;36.22;;;28.60;;
60038;SDS011;45916;52.734;6.544;2024-03-06T12:05:41;36.42;;;28.67;;
60038;SDS011;45916;52.734;6.544;2024-03-06T12:08:07;33.55;;;27.58;;
60038;SDS011;45916;52.734;6.544;2024-03-06T12:10:36;35.95;;;28.15;;
60038;SDS011;45916;52.734;6.544;2024-03-06T12:13:03;34.38;;;27.75;;
60038;SDS011;45916;52.734;6.544;2024-03-06T12:15:30;35.72;;;28.55;;
60038;SDS011;45916;52.734;6.544;2024-03-06T12:17:56;34.35;;;27.42;;
60038;SDS011;45916;52.734;6.544;2024-03-06T12:20:23;36.25;;;29.02;;
60038;SDS011;45916;52.734;6.544;2024-03-06T12:25:20;34.70;;;27.70;;
60038;SDS011;45916;52.734;6.544;2024-03-06T12:27:46;33.17;;;27.00;;
60038;SDS011;45916;52.734;6.544;2024-03-06T12:30:13;38.22;;;29.75;;
60038;SDS011;45916;52.734;6.544;2024-03-06T12:32:39;37.55;;;28.20;;
60038;SDS011;45916;52.734;6.544;2024-03-06T12:35:05;36.08;;;27.13;;
60038;SDS011;45916;52.734;6.544;2024-03-06T12:37:32;36.13;;;28.88;;
60038;SDS011;45916;52.734;6.544;2024-03-06T12:39:58;39.63;;;30.20;;
60038;SDS011;45916;52.734;6.544;2024-03-06T12:42:24;35.10;;;28.92;;
60038;SDS011;45916;52.734;6.544;2024-03-06T12:44:50;33.75;;;28.23;;
60038;SDS011;45916;52.734;6.544;2024-03-06T12:47:17;32.17;;;26.27;;
60038;SDS011;45916;52.734;6.544;2024-03-06T12:49:43;34.00;;;27.00;;
60038;SDS011;45916;52.734;6.544;2024-03-06T12:52:09;36.42;;;27.48;;
60038;SDS011;45916;52.734;6.544;2024-03-06T12:54:35;35.65;;;29.20;;
60038;SDS011;45916;52.734;6.544;2024-03-06T12:57:01;32.72;;;27.85;;
60038;SDS011;45916;52.734;6.544;2024-03-06T12:59:28;35.47;;;28.02;;
60038;SDS011;45916;52.734;6.544;2024-03-06T13:01:54;41.22;;;28.85;;
60038;SDS011;45916;52.734;6.544;2024-03-06T13:04:20;37.50;;;30.35;;
60038;SDS011;45916;52.734;6.544;2024-03-06T13:06:46;37.22;;;29.20;;
60038;SDS011;45916;52.734;6.544;2024-03-06T13:09:12;36.40;;;29.88;;
60038;SDS011;45916;52.734;6.544;2024-03-06T13:11:38;39.28;;;31.17;;
60038;SDS011;45916;52.734;6.544;2024-03-06T13:14:04;35.47;;;29.15;;
60038;SDS011;45916;52.734;6.544;2024-03-06T13:16:30;40.33;;;29.60;;
60038;SDS011;45916;52.734;6.544;2024-03-06T13:18:56;39.65;;;29.05;;
60038;SDS011;45916;52.734;6.544;2024-03-06T13:21:25;39.33;;;29.88;;
60038;SDS011;45916;52.734;6.544;2024-03-06T13:23:51;39.53;;;29.02;;
60038;SDS011;45916;52.734;6.544;2024-03-06T13:26:17;39.70;;;31.08;;
60038;SDS011;45916;52.734;6.544;2024-03-06T13:28:43;41.13;;;30.58;;
60038;SDS011;45916;52.734;6.544;2024-03-06T13:31:11;39.73;;;30.00;;
60038;SDS011;45916;52.734;6.544;2024-03-06T13:33:37;38.97;;;29.45;;
60038;SDS011;45916;52.734;6.544;2024-03-06T13:36:03;43.72;;;30.58;;
60038;SDS011;45916;52.734;6.544;2024-03-06T13:38:29;40.58;;;30.50;;
60038;SDS011;45916;52.734;6.544;2024-03-06T13:40:55;39.97;;;31.02;;
60038;SDS011;45916;52.734;6.544;2024-03-06T13:43:21;42.33;;;31.42;;
60038;SDS011;45916;52.734;6.544;2024-03-06T13:45:49;39.78;;;30.20;;
60038;SDS011;45916;52.734;6.544;2024-03-06T13:48:15;42.28;;;30.63;;
60038;SDS011;45916;52.734;6.544;2024-03-06T13:50:44;38.08;;;29.88;;
60038;SDS011;45916;52.734;6.544;2024-03-06T13:53:11;44.70;;;30.45;;
60038;SDS011;45916;52.734;6.544;2024-03-06T13:55:37;43.63;;;29.73;;
60038;SDS011;45916;52.734;6.544;2024-03-06T13:58:03;38.88;;;29.35;;
60038;SDS011;45916;52.734;6.544;2024-03-06T14:00:29;43.00;;;29.83;;
60038;SDS011;45916;52.734;6.544;2024-03-06T14:02:55;38.03;;;29.38;;
60038;SDS011;45916;52.734;6.544;2024-03-06T14:05:22;40.38;;;30.70;;
60038;SDS011;45916;52.734;6.544;2024-03-06T14:07:52;41.95;;;30.98;;
60038;SDS011;45916;52.734;6.544;2024-03-06T14:10:18;41.83;;;29.17;;
60038;SDS011;45916;52.734;6.544;2024-03-06T14:12:46;38.25;;;28.75;;
60038;SDS011;45916;52.734;6.544;2024-03-06T14:15:16;39.38;;;27.95;;
60038;SDS011;45916;52.734;6.544;2024-03-06T14:17:44;39.50;;;29.05;;
60038;SDS011;45916;52.734;6.544;2024-03-06T14:20:10;39.05;;;29.55;;
60038;SDS011;45916;52.734;6.544;2024-03-06T14:22:41;38.90;;;27.45;;
60038;SDS011;45916;52.734;6.544;2024-03-06T14:25:07;40.00;;;28.35;;
60038;SDS011;45916;52.734;6.544;2024-03-06T14:27:33;35.42;;;28.85;;
60038;SDS011;45916;52.734;6.544;2024-03-06T14:30:01;38.30;;;27.87;;
60038;SDS011;45916;52.734;6.544;2024-03-06T14:32:27;39.80;;;28.60;;
60038;SDS011;45916;52.734;6.544;2024-03-06T14:34:53;39.70;;;29.02;;
60038;SDS011;45916;52.734;6.544;2024-03-06T14:37:20;40.70;;;29.73;;
60038;SDS011;45916;52.734;6.544;2024-03-06T14:39:46;39.15;;;30.00;;
60038;SDS011;45916;52.734;6.544;2024-03-06T14:42:12;36.90;;;28.00;;